PWSweather.com
Personal Weather Stations
Station Observations
ISYDDANM23
Felsted, AabenraaDK 6200

FelstedAabenraaDK 6200

Lat: 54.977066, Lon: 9.507192

Elevation: 135

Station Type: Davis Vantage Pro 2 Plus 24H

http://www.valkaer.dk

Latest ConditionsUpdated 6:50:01 PM GMT+01:01 Tuesday, Jan 22, 2019
Currently Today's Max Today's Min Today's Average
Temperature 30.8°F-0.7°C 33.6°F0.9°C 23.6°F-4.7°C 31.3°F-0.4°C
Dew Point 25.7°F-3.5°C 31.9°F-0.1°C 22.7°F-5.2°C 29.6°F-1.3°C
Winds 9.2 mph SSE14.8 kmh SSE 10.4 mph -16.7 kmh - - 4.8 mph 7.7 kmh
Wind Gusts 12.7 mph20.4 kmh 15.0 mph24.1 kmh - -
Humidity 81% 98% 78% 93%
Pressure 29.63 in1003.4 mb 29.94 in1013.9 mb 29.63 in1003.4 mb -
Hour Temp Dew Point Humidity Winds Wind Gusts Pressure Precip Precip Rate Daily Precip Total
06:50 PM 30.8°F-0.7°C 25.7°F-3.5°C 81% 9.2 mph SSE14.8 kmh SSE 12.7 mph20.4 kmh 29.63 in1003.4 mb - 0.00 in0.0 mm 0.00 in0.0 mm
06:45 PM 30.9°F-0.6°C 25.8°F-3.4°C 81% 9.2 mph SSE14.8 kmh SSE 11.5 mph18.5 kmh 29.63 in1003.4 mb - 0.00 in0.0 mm 0.00 in0.0 mm
06:40 PM 30.9°F-0.6°C 25.7°F-3.5°C 81% 9.2 mph SSE14.8 kmh SSE 15.0 mph24.1 kmh 29.63 in1003.4 mb - 0.00 in0.0 mm 0.00 in0.0 mm
06:35 PM 30.8°F-0.7°C 25.6°F-3.6°C 81% 8.1 mph SSE13.0 kmh SSE 11.5 mph18.5 kmh 29.63 in1003.4 mb - 0.00 in0.0 mm 0.00 in0.0 mm
06:30 PM 30.7°F-0.7°C 25.6°F-3.6°C 81% 6.9 mph SE11.1 kmh SE 12.7 mph20.4 kmh 29.63 in1003.4 mb - 0.00 in0.0 mm 0.00 in0.0 mm
06:25 PM 30.6°F-0.8°C 25.8°F-3.4°C 82% 5.8 mph SE9.3 kmh SE 11.5 mph18.5 kmh 29.63 in1003.4 mb - 0.00 in0.0 mm 0.00 in0.0 mm
06:20 PM 30.6°F-0.8°C 25.5°F-3.6°C 81% 8.1 mph SSE13.0 kmh SSE 11.5 mph18.5 kmh 29.63 in1003.4 mb - 0.00 in0.0 mm 0.00 in0.0 mm
06:15 PM 30.6°F-0.8°C 25.5°F-3.6°C 81% 5.8 mph SE9.3 kmh SE 10.4 mph16.7 kmh 29.63 in1003.4 mb - 0.00 in0.0 mm 0.00 in0.0 mm
06:10 PM 30.6°F-0.8°C 25.5°F-3.6°C 81% 8.1 mph SE13.0 kmh SE 11.5 mph18.5 kmh 29.63 in1003.4 mb - 0.00 in0.0 mm 0.00 in0.0 mm
06:00 PM 30.6°F-0.8°C 25.5°F-3.6°C 81% 5.8 mph SE9.3 kmh SE 9.2 mph14.8 kmh 29.63 in1003.4 mb - 0.00 in0.0 mm 0.00 in0.0 mm
05:55 PM 30.6°F-0.8°C 25.5°F-3.6°C 81% 5.8 mph SE9.3 kmh SE 10.4 mph16.7 kmh 29.63 in1003.4 mb - 0.00 in0.0 mm 0.00 in0.0 mm
05:50 PM 30.7°F-0.7°C 25.3°F-3.7°C 80% 5.8 mph SE9.3 kmh SE 8.1 mph13.0 kmh 29.63 in1003.4 mb - 0.00 in0.0 mm 0.00 in0.0 mm
05:45 PM 30.7°F-0.7°C 25.2°F-3.8°C 80% 8.1 mph SSE13.0 kmh SSE 11.5 mph18.5 kmh 29.64 in1003.7 mb - 0.00 in0.0 mm 0.00 in0.0 mm
05:40 PM 30.8°F-0.7°C 25.4°F-3.7°C 80% 4.6 mph SE7.4 kmh SE 8.1 mph13.0 kmh 29.64 in1003.7 mb - 0.00 in0.0 mm 0.00 in0.0 mm
05:35 PM 30.9°F-0.6°C 25.5°F-3.6°C 80% 6.9 mph SE11.1 kmh SE 11.5 mph18.5 kmh 29.64 in1003.7 mb - 0.00 in0.0 mm 0.00 in0.0 mm
05:30 PM 31.2°F-0.4°C 25.7°F-3.5°C 80% 6.9 mph SSE11.1 kmh SSE 12.7 mph20.4 kmh 29.64 in1003.7 mb - 0.00 in0.0 mm 0.00 in0.0 mm
05:25 PM 31.3°F-0.4°C 25.5°F-3.6°C 79% 8.1 mph SE13.0 kmh SE 11.5 mph18.5 kmh 29.64 in1003.7 mb - 0.00 in0.0 mm 0.00 in0.0 mm
05:20 PM 31.3°F-0.4°C 25.8°F-3.4°C 80% 10.4 mph SE16.7 kmh SE 12.7 mph20.4 kmh 29.64 in1003.7 mb - 0.00 in0.0 mm 0.00 in0.0 mm
05:15 PM 31.5°F-0.3°C 25.7°F-3.5°C 79% 6.9 mph SE11.1 kmh SE 9.2 mph14.8 kmh 29.64 in1003.7 mb - 0.00 in0.0 mm 0.00 in0.0 mm
05:10 PM 31.7°F-0.2°C 25.6°F-3.6°C 78% 9.2 mph SE14.8 kmh SE 11.5 mph18.5 kmh 29.64 in1003.7 mb - 0.00 in0.0 mm 0.00 in0.0 mm
05:00 PM 31.8°F-0.1°C 26.0°F-3.3°C 79% 8.1 mph SSE13.0 kmh SSE 15.0 mph24.1 kmh 29.65 in1004.1 mb - 0.00 in0.0 mm 0.00 in0.0 mm
04:55 PM 31.8°F-0.1°C 26.9°F-2.8°C 82% 9.2 mph SSE14.8 kmh SSE 12.7 mph20.4 kmh 29.65 in1004.1 mb - 0.00 in0.0 mm 0.00 in0.0 mm
04:50 PM 31.9°F-0.1°C 27.6°F-2.4°C 84% 5.8 mph SSE9.3 kmh SSE 9.2 mph14.8 kmh 29.65 in1004.1 mb - 0.00 in0.0 mm 0.00 in0.0 mm
04:45 PM 31.8°F-0.1°C 27.8°F-2.3°C 85% 8.1 mph SE13.0 kmh SE 12.7 mph20.4 kmh 29.65 in1004.1 mb - 0.00 in0.0 mm 0.00 in0.0 mm
04:40 PM 31.9°F-0.1°C 27.9°F-2.3°C 85% 4.6 mph SE7.4 kmh SE 6.9 mph11.1 kmh 29.65 in1004.1 mb - 0.00 in0.0 mm 0.00 in0.0 mm
04:35 PM 32.1°F0.1°C 28.1°F-2.2°C 85% 5.8 mph SE9.3 kmh SE 9.2 mph14.8 kmh 29.65 in1004.1 mb - 0.00 in0.0 mm 0.00 in0.0 mm
04:30 PM 32.2°F0.1°C 28.2°F-2.1°C 85% 5.8 mph SE9.3 kmh SE 9.2 mph14.8 kmh 29.65 in1004.1 mb - 0.00 in0.0 mm 0.00 in0.0 mm
04:25 PM 32.3°F0.2°C 28.5°F-1.9°C 86% 8.1 mph SE13.0 kmh SE 11.5 mph18.5 kmh 29.65 in1004.1 mb - 0.00 in0.0 mm 0.00 in0.0 mm
04:20 PM 32.3°F0.2°C 28.6°F-1.9°C 86% 6.9 mph SE11.1 kmh SE 10.4 mph16.7 kmh 29.65 in1004.1 mb - 0.00 in0.0 mm 0.00 in0.0 mm
04:15 PM 32.3°F0.2°C 28.9°F-1.7°C 87% 6.9 mph SE11.1 kmh SE 6.9 mph11.1 kmh 29.66 in1004.4 mb - 0.00 in0.0 mm 0.00 in0.0 mm
04:10 PM 32.3°F0.2°C 28.8°F-1.8°C 87% 5.8 mph SE9.3 kmh SE 9.2 mph14.8 kmh 29.65 in1004.1 mb - 0.00 in0.0 mm 0.00 in0.0 mm
04:00 PM 32.4°F0.2°C 29.2°F-1.6°C 88% 6.9 mph SE11.1 kmh SE 10.4 mph16.7 kmh 29.66 in1004.4 mb - 0.00 in0.0 mm 0.00 in0.0 mm
03:55 PM 32.5°F0.3°C 29.3°F-1.5°C 88% 6.9 mph SE11.1 kmh SE 10.4 mph16.7 kmh 29.66 in1004.4 mb - 0.00 in0.0 mm 0.00 in0.0 mm
03:50 PM 32.5°F0.3°C 29.4°F-1.4°C 88% 6.9 mph SE11.1 kmh SE 10.4 mph16.7 kmh 29.66 in1004.4 mb - 0.00 in0.0 mm 0.00 in0.0 mm
03:45 PM 32.6°F0.3°C 29.4°F-1.4°C 88% 5.8 mph SE9.3 kmh SE 11.5 mph18.5 kmh 29.66 in1004.4 mb - 0.00 in0.0 mm 0.00 in0.0 mm
03:40 PM 32.6°F0.3°C 29.5°F-1.4°C 88% 4.6 mph SE7.4 kmh SE 11.5 mph18.5 kmh 29.66 in1004.4 mb - 0.00 in0.0 mm 0.00 in0.0 mm
03:35 PM 32.7°F0.4°C 29.5°F-1.4°C 88% 6.9 mph SE11.1 kmh SE 11.5 mph18.5 kmh 29.66 in1004.4 mb - 0.00 in0.0 mm 0.00 in0.0 mm
03:30 PM 32.8°F0.4°C 29.6°F-1.3°C 88% 5.8 mph SE9.3 kmh SE 9.2 mph14.8 kmh 29.66 in1004.4 mb - 0.00 in0.0 mm 0.00 in0.0 mm
03:25 PM 32.9°F0.5°C 29.7°F-1.3°C 88% 8.1 mph SE13.0 kmh SE 10.4 mph16.7 kmh 29.66 in1004.4 mb - 0.00 in0.0 mm 0.00 in0.0 mm
03:20 PM 33.0°F0.6°C 29.6°F-1.3°C 87% 9.2 mph SE14.8 kmh SE 11.5 mph18.5 kmh 29.66 in1004.4 mb - 0.00 in0.0 mm 0.00 in0.0 mm
03:15 PM 33.1°F0.6°C 29.7°F-1.3°C 87% 8.1 mph SE13.0 kmh SE 13.8 mph22.2 kmh 29.66 in1004.4 mb - 0.00 in0.0 mm 0.00 in0.0 mm
03:10 PM 33.2°F0.7°C 29.7°F-1.3°C 87% 6.9 mph SSE11.1 kmh SSE 9.2 mph14.8 kmh 29.67 in1004.7 mb - 0.00 in0.0 mm 0.00 in0.0 mm
03:00 PM 33.5°F0.8°C 30.0°F-1.1°C 87% 6.9 mph SE11.1 kmh SE 10.4 mph16.7 kmh 29.67 in1004.7 mb - 0.00 in0.0 mm 0.00 in0.0 mm
02:55 PM 33.6°F0.9°C 30.4°F-0.9°C 88% 6.9 mph SE11.1 kmh SE 9.2 mph14.8 kmh 29.67 in1004.7 mb - 0.00 in0.0 mm 0.00 in0.0 mm
02:50 PM 33.6°F0.9°C 30.4°F-0.9°C 88% 6.9 mph SE11.1 kmh SE 10.4 mph16.7 kmh 29.67 in1004.7 mb - 0.00 in0.0 mm 0.00 in0.0 mm
02:45 PM 33.6°F0.9°C 30.4°F-0.9°C 88% 6.9 mph SE11.1 kmh SE 12.7 mph20.4 kmh 29.68 in1005.1 mb - 0.00 in0.0 mm 0.00 in0.0 mm
02:40 PM 33.6°F0.9°C 30.7°F-0.7°C 89% 6.9 mph SE11.1 kmh SE 9.2 mph14.8 kmh 29.68 in1005.1 mb - 0.00 in0.0 mm 0.00 in0.0 mm
02:35 PM 33.6°F0.9°C 30.7°F-0.7°C 89% 5.8 mph SE9.3 kmh SE 11.5 mph18.5 kmh 29.68 in1005.1 mb - 0.00 in0.0 mm 0.00 in0.0 mm
02:30 PM 33.6°F0.9°C 30.4°F-0.9°C 88% 8.1 mph SSE13.0 kmh SSE 12.7 mph20.4 kmh 29.69 in1005.4 mb - 0.00 in0.0 mm 0.00 in0.0 mm
02:25 PM 33.5°F0.8°C 30.0°F-1.1°C 87% 8.1 mph SE13.0 kmh SE 11.5 mph18.5 kmh 29.69 in1005.4 mb - 0.00 in0.0 mm 0.00 in0.0 mm
02:20 PM 33.4°F0.8°C 29.9°F-1.2°C 87% 8.1 mph SE13.0 kmh SE 11.5 mph18.5 kmh 29.69 in1005.4 mb - 0.00 in0.0 mm 0.00 in0.0 mm
02:15 PM 33.2°F0.7°C 29.8°F-1.2°C 87% 5.8 mph SE9.3 kmh SE 9.2 mph14.8 kmh 29.69 in1005.4 mb - 0.00 in0.0 mm 0.00 in0.0 mm
02:10 PM 33.0°F0.6°C 29.9°F-1.2°C 88% 8.1 mph SE13.0 kmh SE 11.5 mph18.5 kmh 29.70 in1005.8 mb - 0.00 in0.0 mm 0.00 in0.0 mm
02:00 PM 33.1°F0.6°C 30.5°F-0.8°C 90% 5.8 mph SE9.3 kmh SE 9.2 mph14.8 kmh 29.70 in1005.8 mb - 0.00 in0.0 mm 0.00 in0.0 mm
01:55 PM 33.1°F0.6°C 30.5°F-0.8°C 90% 5.8 mph SE9.3 kmh SE 11.5 mph18.5 kmh 29.70 in1005.8 mb - 0.00 in0.0 mm 0.00 in0.0 mm
01:50 PM 33.1°F0.6°C 30.8°F-0.7°C 91% 5.8 mph SE9.3 kmh SE 11.5 mph18.5 kmh 29.71 in1006.1 mb - 0.00 in0.0 mm 0.00 in0.0 mm
01:45 PM 33.1°F0.6°C 30.8°F-0.7°C 91% 6.9 mph SE11.1 kmh SE 10.4 mph16.7 kmh 29.71 in1006.1 mb - 0.00 in0.0 mm 0.00 in0.0 mm
01:40 PM 33.2°F0.7°C 30.9°F-0.6°C 91% 5.8 mph SE9.3 kmh SE 8.1 mph13.0 kmh 29.71 in1006.1 mb - 0.00 in0.0 mm 0.00 in0.0 mm
01:35 PM 33.4°F0.8°C 31.1°F-0.5°C 91% 6.9 mph SE11.1 kmh SE 10.4 mph16.7 kmh 29.72 in1006.4 mb - 0.00 in0.0 mm 0.00 in0.0 mm
01:30 PM 33.2°F0.7°C 30.9°F-0.6°C 91% 5.8 mph SE9.3 kmh SE 10.4 mph16.7 kmh 29.72 in1006.4 mb - 0.00 in0.0 mm 0.00 in0.0 mm
01:25 PM 33.2°F0.7°C 30.9°F-0.6°C 91% 8.1 mph SE13.0 kmh SE 12.7 mph20.4 kmh 29.72 in1006.4 mb - 0.00 in0.0 mm 0.00 in0.0 mm
01:20 PM 33.1°F0.6°C 31.0°F-0.6°C 92% 5.8 mph SE9.3 kmh SE 9.2 mph14.8 kmh 29.73 in1006.8 mb - 0.00 in0.0 mm 0.00 in0.0 mm
01:15 PM 33.0°F0.6°C 30.9°F-0.6°C 92% 5.8 mph SSE9.3 kmh SSE 10.4 mph16.7 kmh 29.73 in1006.8 mb - 0.00 in0.0 mm 0.00 in0.0 mm
01:10 PM 32.8°F0.4°C 31.0°F-0.6°C 93% 4.6 mph SSE7.4 kmh SSE 6.9 mph11.1 kmh 29.73 in1006.8 mb - 0.00 in0.0 mm 0.00 in0.0 mm
01:00 PM 32.3°F0.2°C 30.8°F-0.7°C 94% 5.8 mph SE9.3 kmh SE 10.4 mph16.7 kmh 29.74 in1007.1 mb - 0.00 in0.0 mm 0.00 in0.0 mm
12:55 PM 32.3°F0.2°C 30.8°F-0.7°C 94% 5.8 mph SSE9.3 kmh SSE 6.9 mph11.1 kmh 29.74 in1007.1 mb - 0.00 in0.0 mm 0.00 in0.0 mm
12:50 PM 32.4°F0.2°C 30.6°F-0.8°C 93% 8.1 mph SSE13.0 kmh SSE 11.5 mph18.5 kmh 29.74 in1007.1 mb - 0.00 in0.0 mm 0.00 in0.0 mm
12:45 PM 32.6°F0.3°C 31.1°F-0.5°C 94% 8.1 mph SSE13.0 kmh SSE 10.4 mph16.7 kmh 29.74 in1007.1 mb - 0.00 in0.0 mm 0.00 in0.0 mm
12:40 PM 32.5°F0.3°C 31.0°F-0.6°C 94% 6.9 mph SSE11.1 kmh SSE 10.4 mph16.7 kmh 29.74 in1007.1 mb - 0.00 in0.0 mm 0.00 in0.0 mm
12:35 PM 32.5°F0.3°C 30.9°F-0.6°C 94% 8.1 mph SSE13.0 kmh SSE 9.2 mph14.8 kmh 29.74 in1007.1 mb - 0.00 in0.0 mm 0.00 in0.0 mm
12:30 PM 32.3°F0.2°C 31.1°F-0.5°C 95% 5.8 mph SE9.3 kmh SE 10.4 mph16.7 kmh 29.74 in1007.1 mb - 0.00 in0.0 mm 0.00 in0.0 mm
12:25 PM 32.3°F0.2°C 31.0°F-0.6°C 95% 5.8 mph SSE9.3 kmh SSE 10.4 mph16.7 kmh 29.74 in1007.1 mb - 0.00 in0.0 mm 0.00 in0.0 mm
12:20 PM 32.3°F0.2°C 31.1°F-0.5°C 95% 4.6 mph SE7.4 kmh SE 8.1 mph13.0 kmh 29.75 in1007.5 mb - 0.00 in0.0 mm 0.00 in0.0 mm
12:15 PM 32.4°F0.2°C 31.1°F-0.5°C 95% 5.8 mph SSE9.3 kmh SSE 11.5 mph18.5 kmh 29.75 in1007.5 mb - 0.00 in0.0 mm 0.00 in0.0 mm
12:10 PM 32.5°F0.3°C 31.2°F-0.4°C 95% 8.1 mph SE13.0 kmh SE 10.4 mph16.7 kmh 29.75 in1007.5 mb - 0.00 in0.0 mm 0.00 in0.0 mm
12:00 PM 32.6°F0.3°C 31.3°F-0.4°C 95% 5.8 mph SSE9.3 kmh SSE 6.9 mph11.1 kmh 29.75 in1007.5 mb - 0.00 in0.0 mm 0.00 in0.0 mm
11:55 AM 32.6°F0.3°C 31.3°F-0.4°C 95% 6.9 mph SE11.1 kmh SE 11.5 mph18.5 kmh 29.75 in1007.5 mb - 0.00 in0.0 mm 0.00 in0.0 mm
11:50 AM 32.6°F0.3°C 31.4°F-0.3°C 95% 5.8 mph SE9.3 kmh SE 9.2 mph14.8 kmh 29.75 in1007.5 mb - 0.00 in0.0 mm 0.00 in0.0 mm
11:45 AM 32.5°F0.3°C 31.2°F-0.4°C 95% 5.8 mph SSE9.3 kmh SSE 9.2 mph14.8 kmh 29.76 in1007.8 mb - 0.00 in0.0 mm 0.00 in0.0 mm
11:40 AM 32.4°F0.2°C 31.4°F-0.3°C 96% 4.6 mph SSE7.4 kmh SSE 9.2 mph14.8 kmh 29.76 in1007.8 mb - 0.00 in0.0 mm 0.00 in0.0 mm
11:35 AM 32.4°F0.2°C 31.4°F-0.3°C 96% 6.9 mph SSE11.1 kmh SSE 11.5 mph18.5 kmh 29.76 in1007.8 mb - 0.00 in0.0 mm 0.00 in0.0 mm
11:30 AM 32.5°F0.3°C 31.5°F-0.3°C 96% 4.6 mph SSE7.4 kmh SSE 8.1 mph13.0 kmh 29.76 in1007.8 mb - 0.00 in0.0 mm 0.00 in0.0 mm
11:25 AM 32.5°F0.3°C 31.5°F-0.3°C 96% 5.8 mph SSE9.3 kmh SSE 9.2 mph14.8 kmh 29.77 in1008.1 mb - 0.00 in0.0 mm 0.00 in0.0 mm
11:20 AM 32.4°F0.2°C 31.4°F-0.3°C 96% 3.5 mph S5.6 kmh S 5.8 mph9.3 kmh 29.77 in1008.1 mb - 0.00 in0.0 mm 0.00 in0.0 mm
11:15 AM 32.3°F0.2°C 31.3°F-0.4°C 96% 5.8 mph SSE9.3 kmh SSE 8.1 mph13.0 kmh 29.77 in1008.1 mb - 0.00 in0.0 mm 0.00 in0.0 mm
11:10 AM 32.3°F0.2°C 31.3°F-0.4°C 96% 6.9 mph S11.1 kmh S 8.1 mph13.0 kmh 29.77 in1008.1 mb - 0.00 in0.0 mm 0.00 in0.0 mm
11:00 AM 32.3°F0.2°C 31.6°F-0.2°C 97% 5.8 mph SSE9.3 kmh SSE 10.4 mph16.7 kmh 29.77 in1008.1 mb - 0.00 in0.0 mm 0.00 in0.0 mm
10:55 AM 32.4°F0.2°C 31.6°F-0.2°C 97% 4.6 mph S7.4 kmh S 8.1 mph13.0 kmh 29.78 in1008.5 mb - 0.00 in0.0 mm 0.00 in0.0 mm
10:50 AM 32.4°F0.2°C 31.6°F-0.2°C 97% 5.8 mph SSE9.3 kmh SSE 6.9 mph11.1 kmh 29.78 in1008.5 mb - 0.00 in0.0 mm 0.00 in0.0 mm
10:45 AM 32.4°F0.2°C 31.6°F-0.2°C 97% 6.9 mph S11.1 kmh S 11.5 mph18.5 kmh 29.78 in1008.5 mb - 0.00 in0.0 mm 0.00 in0.0 mm
10:40 AM 32.4°F0.2°C 31.6°F-0.2°C 97% 5.8 mph S9.3 kmh S 9.2 mph14.8 kmh 29.78 in1008.5 mb - 0.00 in0.0 mm 0.00 in0.0 mm
10:35 AM 32.4°F0.2°C 31.6°F-0.2°C 97% 6.9 mph SSE11.1 kmh SSE 9.2 mph14.8 kmh 29.78 in1008.5 mb - 0.00 in0.0 mm 0.00 in0.0 mm
10:30 AM 32.4°F0.2°C 31.6°F-0.2°C 97% 4.6 mph SSE7.4 kmh SSE 9.2 mph14.8 kmh 29.78 in1008.5 mb - 0.00 in0.0 mm 0.00 in0.0 mm
10:25 AM 32.3°F0.2°C 31.6°F-0.2°C 97% 4.6 mph S7.4 kmh S 8.1 mph13.0 kmh 29.79 in1008.8 mb - 0.00 in0.0 mm 0.00 in0.0 mm
10:20 AM 32.3°F0.2°C 31.5°F-0.3°C 97% 5.8 mph S9.3 kmh S 8.1 mph13.0 kmh 29.79 in1008.8 mb - 0.00 in0.0 mm 0.00 in0.0 mm
10:15 AM 32.3°F0.2°C 31.5°F-0.3°C 97% 4.6 mph S7.4 kmh S 11.5 mph18.5 kmh 29.79 in1008.8 mb - 0.00 in0.0 mm 0.00 in0.0 mm
10:10 AM 32.2°F0.1°C 31.5°F-0.3°C 97% 4.6 mph SSE7.4 kmh SSE 6.9 mph11.1 kmh 29.79 in1008.8 mb - 0.00 in0.0 mm 0.00 in0.0 mm
10:00 AM 32.2°F0.1°C 31.7°F-0.2°C 98% 4.6 mph SSE7.4 kmh SSE 6.9 mph11.1 kmh 29.79 in1008.8 mb - 0.00 in0.0 mm 0.00 in0.0 mm
09:55 AM 32.2°F0.1°C 31.7°F-0.2°C 98% 5.8 mph SSE9.3 kmh SSE 10.4 mph16.7 kmh 29.79 in1008.8 mb - 0.00 in0.0 mm 0.00 in0.0 mm
09:50 AM 32.1°F0.1°C 31.6°F-0.2°C 98% 4.6 mph SSE7.4 kmh SSE 8.1 mph13.0 kmh 29.79 in1008.8 mb - 0.00 in0.0 mm 0.00 in0.0 mm
09:45 AM 32.2°F0.1°C 31.7°F-0.2°C 98% 3.5 mph SSE5.6 kmh SSE 5.8 mph9.3 kmh 29.79 in1008.8 mb - 0.00 in0.0 mm 0.00 in0.0 mm
09:40 AM 32.1°F0.1°C 31.4°F-0.3°C 97% 4.6 mph SSE7.4 kmh SSE 6.9 mph11.1 kmh 29.79 in1008.8 mb - 0.00 in0.0 mm 0.00 in0.0 mm
09:35 AM 32.1°F0.1°C 31.6°F-0.2°C 98% 4.6 mph S7.4 kmh S 8.1 mph13.0 kmh 29.80 in1009.1 mb - 0.00 in0.0 mm 0.00 in0.0 mm
09:30 AM 32.0°F0.0°C 31.5°F-0.3°C 98% 3.5 mph S5.6 kmh S 4.6 mph7.4 kmh 29.80 in1009.1 mb - 0.00 in0.0 mm 0.00 in0.0 mm
09:25 AM 32.0°F0.0°C 31.5°F-0.3°C 98% 4.6 mph S7.4 kmh S 5.8 mph9.3 kmh 29.80 in1009.1 mb - 0.00 in0.0 mm 0.00 in0.0 mm
09:20 AM 32.0°F0.0°C 31.5°F-0.3°C 98% 6.9 mph SSE11.1 kmh SSE 11.5 mph18.5 kmh 29.80 in1009.1 mb - 0.00 in0.0 mm 0.00 in0.0 mm
09:15 AM 32.0°F0.0°C 31.5°F-0.3°C 98% 4.6 mph SSE7.4 kmh SSE 9.2 mph14.8 kmh 29.80 in1009.1 mb - 0.00 in0.0 mm 0.00 in0.0 mm
09:10 AM 32.0°F0.0°C 31.5°F-0.3°C 98% 3.5 mph S5.6 kmh S 6.9 mph11.1 kmh 29.81 in1009.5 mb - 0.00 in0.0 mm 0.00 in0.0 mm
09:00 AM 32.0°F0.0°C 31.5°F-0.3°C 98% 4.6 mph S7.4 kmh S 6.9 mph11.1 kmh 29.81 in1009.5 mb - 0.00 in0.0 mm 0.00 in0.0 mm
08:55 AM 32.1°F0.1°C 31.6°F-0.2°C 98% 4.6 mph S7.4 kmh S 5.8 mph9.3 kmh 29.81 in1009.5 mb - 0.00 in0.0 mm 0.00 in0.0 mm
08:50 AM 32.1°F0.1°C 31.6°F-0.2°C 98% 4.6 mph SSE7.4 kmh SSE 5.8 mph9.3 kmh 29.81 in1009.5 mb - 0.00 in0.0 mm 0.00 in0.0 mm
08:45 AM 32.1°F0.1°C 31.6°F-0.2°C 98% 3.5 mph S5.6 kmh S 6.9 mph11.1 kmh 29.81 in1009.5 mb - 0.00 in0.0 mm 0.00 in0.0 mm
08:40 AM 32.2°F0.1°C 31.7°F-0.2°C 98% 5.8 mph S9.3 kmh S 6.9 mph11.1 kmh 29.81 in1009.5 mb - 0.00 in0.0 mm 0.00 in0.0 mm
08:35 AM 32.1°F0.1°C 31.6°F-0.2°C 98% 3.5 mph S5.6 kmh S 4.6 mph7.4 kmh 29.81 in1009.5 mb - 0.00 in0.0 mm 0.00 in0.0 mm
08:30 AM 32.1°F0.1°C 31.6°F-0.2°C 98% 4.6 mph S7.4 kmh S 6.9 mph11.1 kmh 29.81 in1009.5 mb - 0.00 in0.0 mm 0.00 in0.0 mm
08:25 AM 32.1°F0.1°C 31.6°F-0.2°C 98% 5.8 mph SSE9.3 kmh SSE 6.9 mph11.1 kmh 29.81 in1009.5 mb - 0.00 in0.0 mm 0.00 in0.0 mm
08:20 AM 32.1°F0.1°C 31.6°F-0.2°C 98% 4.6 mph SSE7.4 kmh SSE 5.8 mph9.3 kmh 29.81 in1009.5 mb - 0.00 in0.0 mm 0.00 in0.0 mm
08:15 AM 32.1°F0.1°C 31.6°F-0.2°C 98% 4.6 mph S7.4 kmh S 5.8 mph9.3 kmh 29.81 in1009.5 mb - 0.00 in0.0 mm 0.00 in0.0 mm
08:10 AM 32.0°F0.0°C 31.5°F-0.3°C 98% 3.5 mph SSE5.6 kmh SSE 5.8 mph9.3 kmh 29.81 in1009.5 mb - 0.00 in0.0 mm 0.00 in0.0 mm
08:00 AM 32.0°F0.0°C 31.5°F-0.3°C 98% 4.6 mph SSE7.4 kmh SSE 6.9 mph11.1 kmh 29.81 in1009.5 mb - 0.00 in0.0 mm 0.00 in0.0 mm
07:55 AM 32.0°F0.0°C 31.5°F-0.3°C 98% 3.5 mph S5.6 kmh S 5.8 mph9.3 kmh 29.81 in1009.5 mb - 0.00 in0.0 mm 0.00 in0.0 mm
07:50 AM 32.0°F0.0°C 31.5°F-0.3°C 98% 4.6 mph SSE7.4 kmh SSE 5.8 mph9.3 kmh 29.81 in1009.5 mb - 0.00 in0.0 mm 0.00 in0.0 mm
07:45 AM 32.0°F0.0°C 31.5°F-0.3°C 98% 4.6 mph SSE7.4 kmh SSE 5.8 mph9.3 kmh 29.81 in1009.5 mb - 0.00 in0.0 mm 0.00 in0.0 mm
07:40 AM 32.0°F0.0°C 31.2°F-0.4°C 97% 3.5 mph S5.6 kmh S 4.6 mph7.4 kmh 29.81 in1009.5 mb - 0.00 in0.0 mm 0.00 in0.0 mm
07:35 AM 32.0°F0.0°C 31.5°F-0.3°C 98% 4.6 mph SSE7.4 kmh SSE 5.8 mph9.3 kmh 29.82 in1009.8 mb - 0.00 in0.0 mm 0.00 in0.0 mm
07:30 AM 32.0°F0.0°C 31.5°F-0.3°C 98% 4.6 mph SSE7.4 kmh SSE 5.8 mph9.3 kmh 29.82 in1009.8 mb - 0.00 in0.0 mm 0.00 in0.0 mm
07:25 AM 32.0°F0.0°C 31.5°F-0.3°C 98% 4.6 mph SE7.4 kmh SE 8.1 mph13.0 kmh 29.82 in1009.8 mb - 0.00 in0.0 mm 0.00 in0.0 mm
07:20 AM 32.0°F0.0°C 31.3°F-0.4°C 97% 4.6 mph S7.4 kmh S 8.1 mph13.0 kmh 29.82 in1009.8 mb - 0.00 in0.0 mm 0.00 in0.0 mm
07:15 AM 32.0°F0.0°C 31.3°F-0.4°C 97% 3.5 mph S5.6 kmh S 4.6 mph7.4 kmh 29.82 in1009.8 mb - 0.00 in0.0 mm 0.00 in0.0 mm
07:10 AM 32.1°F0.1°C 31.3°F-0.4°C 97% 4.6 mph S7.4 kmh S 5.8 mph9.3 kmh 29.83 in1010.2 mb - 0.00 in0.0 mm 0.00 in0.0 mm
07:00 AM 32.2°F0.1°C 31.7°F-0.2°C 98% 4.6 mph S7.4 kmh S 4.6 mph7.4 kmh 29.83 in1010.2 mb - 0.00 in0.0 mm 0.00 in0.0 mm
06:55 AM 32.3°F0.2°C 31.8°F-0.1°C 98% 4.6 mph S7.4 kmh S 5.8 mph9.3 kmh 29.83 in1010.2 mb - 0.00 in0.0 mm 0.00 in0.0 mm
06:50 AM 32.3°F0.2°C 31.8°F-0.1°C 98% 4.6 mph S7.4 kmh S 8.1 mph13.0 kmh 29.83 in1010.2 mb - 0.00 in0.0 mm 0.00 in0.0 mm
06:45 AM 32.4°F0.2°C 31.9°F-0.1°C 98% 3.5 mph S5.6 kmh S 8.1 mph13.0 kmh 29.83 in1010.2 mb - 0.00 in0.0 mm 0.00 in0.0 mm
06:40 AM 32.4°F0.2°C 31.9°F-0.1°C 98% 4.6 mph S7.4 kmh S 5.8 mph9.3 kmh 29.83 in1010.2 mb - 0.00 in0.0 mm 0.00 in0.0 mm
06:35 AM 32.4°F0.2°C 31.9°F-0.1°C 98% 3.5 mph S5.6 kmh S 3.5 mph5.6 kmh 29.84 in1010.5 mb - 0.00 in0.0 mm 0.00 in0.0 mm
06:30 AM 32.4°F0.2°C 31.6°F-0.2°C 97% 3.5 mph SSW5.6 kmh SSW 4.6 mph7.4 kmh 29.84 in1010.5 mb - 0.00 in0.0 mm 0.00 in0.0 mm
06:25 AM 32.4°F0.2°C 31.9°F-0.1°C 98% 4.6 mph SSW7.4 kmh SSW 9.2 mph14.8 kmh 29.84 in1010.5 mb - 0.00 in0.0 mm 0.00 in0.0 mm
06:20 AM 32.4°F0.2°C 31.9°F-0.1°C 98% 5.8 mph SSW9.3 kmh SSW 6.9 mph11.1 kmh 29.84 in1010.5 mb - 0.00 in0.0 mm 0.00 in0.0 mm
06:15 AM 32.4°F0.2°C 31.9°F-0.1°C 98% 6.9 mph SSW11.1 kmh SSW 10.4 mph16.7 kmh 29.84 in1010.5 mb - 0.00 in0.0 mm 0.00 in0.0 mm
06:10 AM 32.4°F0.2°C 31.9°F-0.1°C 98% 3.5 mph SSW5.6 kmh SSW 8.1 mph13.0 kmh 29.84 in1010.5 mb - 0.00 in0.0 mm 0.00 in0.0 mm
06:00 AM 32.4°F0.2°C 31.9°F-0.1°C 98% 3.5 mph SSW5.6 kmh SSW 5.8 mph9.3 kmh 29.84 in1010.5 mb - 0.00 in0.0 mm 0.00 in0.0 mm
05:55 AM 32.4°F0.2°C 31.6°F-0.2°C 97% 4.6 mph S7.4 kmh S 5.8 mph9.3 kmh 29.84 in1010.5 mb - 0.00 in0.0 mm 0.00 in0.0 mm
05:50 AM 32.4°F0.2°C 31.6°F-0.2°C 97% 5.8 mph S9.3 kmh S 8.1 mph13.0 kmh 29.84 in1010.5 mb - 0.00 in0.0 mm 0.00 in0.0 mm
05:45 AM 32.4°F0.2°C 31.6°F-0.2°C 97% 4.6 mph SSW7.4 kmh SSW 5.8 mph9.3 kmh 29.84 in1010.5 mb - 0.00 in0.0 mm 0.00 in0.0 mm
05:40 AM 32.4°F0.2°C 31.6°F-0.2°C 97% 4.6 mph S7.4 kmh S 6.9 mph11.1 kmh 29.84 in1010.5 mb - 0.00 in0.0 mm 0.00 in0.0 mm
05:35 AM 32.4°F0.2°C 31.7°F-0.2°C 97% 3.5 mph S5.6 kmh S 4.6 mph7.4 kmh 29.85 in1010.8 mb - 0.00 in0.0 mm 0.00 in0.0 mm
05:30 AM 32.4°F0.2°C 31.7°F-0.2°C 97% 5.8 mph S9.3 kmh S 8.1 mph13.0 kmh 29.85 in1010.8 mb - 0.00 in0.0 mm 0.00 in0.0 mm
05:25 AM 32.4°F0.2°C 31.7°F-0.2°C 97% 5.8 mph S9.3 kmh S 8.1 mph13.0 kmh 29.85 in1010.8 mb - 0.00 in0.0 mm 0.00 in0.0 mm
05:20 AM 32.4°F0.2°C 31.7°F-0.2°C 97% 3.5 mph SSW5.6 kmh SSW 4.6 mph7.4 kmh 29.85 in1010.8 mb - 0.00 in0.0 mm 0.00 in0.0 mm
05:15 AM 32.4°F0.2°C 31.7°F-0.2°C 97% 4.6 mph S7.4 kmh S 6.9 mph11.1 kmh 29.85 in1010.8 mb - 0.00 in0.0 mm 0.00 in0.0 mm
05:10 AM 32.5°F0.3°C 31.7°F-0.2°C 97% 4.6 mph S7.4 kmh S 5.8 mph9.3 kmh 29.85 in1010.8 mb - 0.00 in0.0 mm 0.00 in0.0 mm
05:00 AM 32.5°F0.3°C 31.7°F-0.2°C 97% 3.5 mph S5.6 kmh S 5.8 mph9.3 kmh 29.86 in1011.2 mb - 0.00 in0.0 mm 0.00 in0.0 mm
04:55 AM 32.5°F0.3°C 31.7°F-0.2°C 97% 4.6 mph S7.4 kmh S 6.9 mph11.1 kmh 29.86 in1011.2 mb - 0.00 in0.0 mm 0.00 in0.0 mm
04:50 AM 32.6°F0.3°C 31.8°F-0.1°C 97% 3.5 mph SSW5.6 kmh SSW 4.6 mph7.4 kmh 29.86 in1011.2 mb - 0.00 in0.0 mm 0.00 in0.0 mm
04:45 AM 32.5°F0.3°C 31.7°F-0.2°C 97% 4.6 mph SSW7.4 kmh SSW 6.9 mph11.1 kmh 29.86 in1011.2 mb - 0.00 in0.0 mm 0.00 in0.0 mm
04:40 AM 32.5°F0.3°C 31.7°F-0.2°C 97% 3.5 mph S5.6 kmh S 4.6 mph7.4 kmh 29.86 in1011.2 mb - 0.00 in0.0 mm 0.00 in0.0 mm
04:35 AM 32.5°F0.3°C 31.7°F-0.2°C 97% 3.5 mph SSW5.6 kmh SSW 5.8 mph9.3 kmh 29.86 in1011.2 mb - 0.00 in0.0 mm 0.00 in0.0 mm
04:30 AM 32.5°F0.3°C 31.7°F-0.2°C 97% 4.6 mph SSW7.4 kmh SSW 4.6 mph7.4 kmh 29.86 in1011.2 mb - 0.00 in0.0 mm 0.00 in0.0 mm
04:25 AM 32.5°F0.3°C 31.7°F-0.2°C 97% 4.6 mph SSW7.4 kmh SSW 5.8 mph9.3 kmh 29.86 in1011.2 mb - 0.00 in0.0 mm 0.00 in0.0 mm
04:20 AM 32.4°F0.2°C 31.6°F-0.2°C 97% 3.5 mph S5.6 kmh S 4.6 mph7.4 kmh 29.86 in1011.2 mb - 0.00 in0.0 mm 0.00 in0.0 mm
04:15 AM 32.4°F0.2°C 31.6°F-0.2°C 97% 2.3 mph S3.7 kmh S 3.5 mph5.6 kmh 29.86 in1011.2 mb - 0.00 in0.0 mm 0.00 in0.0 mm
04:10 AM 32.4°F0.2°C 31.6°F-0.2°C 97% 3.5 mph S5.6 kmh S 4.6 mph7.4 kmh 29.87 in1011.5 mb - 0.00 in0.0 mm 0.00 in0.0 mm
04:00 AM 32.3°F0.2°C 31.5°F-0.3°C 97% 4.6 mph S7.4 kmh S 6.9 mph11.1 kmh 29.87 in1011.5 mb - 0.00 in0.0 mm 0.00 in0.0 mm
03:55 AM 32.2°F0.1°C 31.7°F-0.2°C 98% 3.5 mph S5.6 kmh S 8.1 mph13.0 kmh 29.87 in1011.5 mb - 0.00 in0.0 mm 0.00 in0.0 mm
03:50 AM 32.0°F0.0°C 31.5°F-0.3°C 98% 3.5 mph SSW5.6 kmh SSW 4.6 mph7.4 kmh 29.87 in1011.5 mb - 0.00 in0.0 mm 0.00 in0.0 mm
03:45 AM 31.8°F-0.1°C 31.0°F-0.6°C 97% 3.5 mph S5.6 kmh S 4.6 mph7.4 kmh 29.88 in1011.9 mb - 0.00 in0.0 mm 0.00 in0.0 mm
03:40 AM 31.6°F-0.2°C 30.8°F-0.7°C 97% 3.5 mph S5.6 kmh S 4.6 mph7.4 kmh 29.88 in1011.9 mb - 0.00 in0.0 mm 0.00 in0.0 mm
03:35 AM 31.5°F-0.3°C 30.7°F-0.7°C 97% 1.2 mph S1.9 kmh S 3.5 mph5.6 kmh 29.88 in1011.9 mb - 0.00 in0.0 mm 0.00 in0.0 mm
03:30 AM 31.3°F-0.4°C 30.5°F-0.8°C 97% 2.3 mph SSE3.7 kmh SSE 3.5 mph5.6 kmh 29.88 in1011.9 mb - 0.00 in0.0 mm 0.00 in0.0 mm
03:25 AM 31.1°F-0.5°C 30.3°F-0.9°C 97% 3.5 mph S5.6 kmh S 3.5 mph5.6 kmh 29.88 in1011.9 mb - 0.00 in0.0 mm 0.00 in0.0 mm
03:20 AM 30.7°F-0.7°C 30.0°F-1.1°C 97% 2.3 mph S3.7 kmh S 3.5 mph5.6 kmh 29.89 in1012.2 mb - 0.00 in0.0 mm 0.00 in0.0 mm
03:15 AM 30.4°F-0.9°C 29.7°F-1.3°C 97% 1.2 mph S1.9 kmh S 3.5 mph5.6 kmh 29.89 in1012.2 mb - 0.00 in0.0 mm 0.00 in0.0 mm
03:10 AM 30.0°F-1.1°C 29.3°F-1.5°C 97% 2.3 mph S3.7 kmh S 3.5 mph5.6 kmh 29.89 in1012.2 mb - 0.00 in0.0 mm 0.00 in0.0 mm
03:00 AM 29.4°F-1.4°C 28.6°F-1.9°C 97% 1.2 mph S1.9 kmh S 2.3 mph3.7 kmh 29.89 in1012.2 mb - 0.00 in0.0 mm 0.00 in0.0 mm
02:55 AM 29.3°F-1.5°C 28.6°F-1.9°C 97% 1.2 mph SSW1.9 kmh SSW 2.3 mph3.7 kmh 29.89 in1012.2 mb - 0.00 in0.0 mm 0.00 in0.0 mm
02:50 AM 29.1°F-1.6°C 28.4°F-2.0°C 97% 1.2 mph SSW1.9 kmh SSW 1.2 mph1.9 kmh 29.90 in1012.5 mb - 0.00 in0.0 mm 0.00 in0.0 mm
02:45 AM 28.9°F-1.7°C 28.2°F-2.1°C 97% 1.2 mph SSW1.9 kmh SSW 2.3 mph3.7 kmh 29.90 in1012.5 mb - 0.00 in0.0 mm 0.00 in0.0 mm
02:40 AM 28.8°F-1.8°C 28.1°F-2.2°C 97% 1.2 mph SSE1.9 kmh SSE 1.2 mph1.9 kmh 29.90 in1012.5 mb - 0.00 in0.0 mm 0.00 in0.0 mm
02:35 AM 28.6°F-1.9°C 27.9°F-2.3°C 97% 2.3 mph SSE3.7 kmh SSE 3.5 mph5.6 kmh 29.90 in1012.5 mb - 0.00 in0.0 mm 0.00 in0.0 mm
02:30 AM 28.5°F-1.9°C 27.7°F-2.4°C 97% 2.3 mph S3.7 kmh S 3.5 mph5.6 kmh 29.90 in1012.5 mb - 0.00 in0.0 mm 0.00 in0.0 mm
02:25 AM 28.3°F-2.1°C 27.6°F-2.4°C 97% 2.3 mph S3.7 kmh S 3.5 mph5.6 kmh 29.91 in1012.9 mb - 0.00 in0.0 mm 0.00 in0.0 mm
02:20 AM 28.2°F-2.1°C 27.5°F-2.5°C 97% 2.3 mph S3.7 kmh S 3.5 mph5.6 kmh 29.91 in1012.9 mb - 0.00 in0.0 mm 0.00 in0.0 mm
02:15 AM 27.9°F-2.3°C 27.2°F-2.7°C 97% 2.3 mph S3.7 kmh S 3.5 mph5.6 kmh 29.91 in1012.9 mb - 0.00 in0.0 mm 0.00 in0.0 mm
02:10 AM 27.8°F-2.3°C 27.1°F-2.7°C 97% 3.5 mph S5.6 kmh S 3.5 mph5.6 kmh 29.91 in1012.9 mb - 0.00 in0.0 mm 0.00 in0.0 mm
02:00 AM 27.0°F-2.8°C 26.3°F-3.2°C 97% 2.3 mph SSW3.7 kmh SSW 4.6 mph7.4 kmh 29.92 in1013.2 mb - 0.00 in0.0 mm 0.00 in0.0 mm
01:55 AM 26.2°F-3.2°C 25.5°F-3.6°C 97% 1.2 mph S1.9 kmh S 3.5 mph5.6 kmh 29.92 in1013.2 mb - 0.00 in0.0 mm 0.00 in0.0 mm
01:50 AM 25.4°F-3.7°C 24.4°F-4.2°C 96% Calm Calm 1.2 mph1.9 kmh 29.92 in1013.2 mb - 0.00 in0.0 mm 0.00 in0.0 mm
01:45 AM 25.6°F-3.6°C 24.8°F-4.0°C 97% 1.2 mph S1.9 kmh S 2.3 mph3.7 kmh 29.92 in1013.2 mb - 0.00 in0.0 mm 0.00 in0.0 mm
01:40 AM 24.9°F-3.9°C 23.9°F-4.5°C 96% Calm Calm 2.3 mph3.7 kmh 29.92 in1013.2 mb - 0.00 in0.0 mm 0.00 in0.0 mm
01:35 AM 24.8°F-4.0°C 23.9°F-4.5°C 96% Calm Calm -- 29.92 in1013.2 mb - 0.00 in0.0 mm 0.00 in0.0 mm
01:30 AM 25.8°F-3.4°C 25.1°F-3.8°C 97% Calm Calm -- 29.92 in1013.2 mb - 0.00 in0.0 mm 0.00 in0.0 mm
01:25 AM 26.3°F-3.2°C 25.3°F-3.7°C 96% Calm Calm -- 29.92 in1013.2 mb - 0.00 in0.0 mm 0.00 in0.0 mm
01:20 AM 27.3°F-2.6°C 26.6°F-3.0°C 97% Calm Calm -- 29.92 in1013.2 mb - 0.00 in0.0 mm 0.00 in0.0 mm
01:15 AM 27.6°F-2.4°C 26.8°F-2.9°C 97% Calm Calm -- 29.92 in1013.2 mb - 0.00 in0.0 mm 0.00 in0.0 mm
01:10 AM 27.1°F-2.7°C 26.3°F-3.2°C 97% Calm Calm -- 29.93 in1013.5 mb - 0.00 in0.0 mm 0.00 in0.0 mm
01:00 AM 26.4°F-3.1°C 25.6°F-3.6°C 97% Calm Calm -- 29.93 in1013.5 mb - 0.00 in0.0 mm 0.00 in0.0 mm
12:55 AM 26.7°F-2.9°C 26.0°F-3.3°C 97% Calm Calm -- 29.93 in1013.5 mb - 0.00 in0.0 mm 0.00 in0.0 mm
12:50 AM 26.4°F-3.1°C 25.7°F-3.5°C 97% Calm Calm -- 29.93 in1013.5 mb - 0.00 in0.0 mm 0.00 in0.0 mm
12:45 AM 26.0°F-3.3°C 25.3°F-3.7°C 97% Calm Calm -- 29.93 in1013.5 mb - 0.00 in0.0 mm 0.00 in0.0 mm
12:40 AM 25.0°F-3.9°C 24.3°F-4.3°C 97% Calm Calm -- 29.93 in1013.5 mb - 0.00 in0.0 mm 0.00 in0.0 mm
12:35 AM 24.3°F-4.3°C 23.6°F-4.7°C 97% Calm Calm -- 29.93 in1013.5 mb - 0.00 in0.0 mm 0.00 in0.0 mm
12:30 AM 23.6°F-4.7°C 22.7°F-5.2°C 96% Calm Calm -- 29.94 in1013.9 mb - 0.00 in0.0 mm 0.00 in0.0 mm
12:25 AM 25.5°F-3.6°C 24.8°F-4.0°C 97% Calm Calm -- 29.94 in1013.9 mb - 0.00 in0.0 mm 0.00 in0.0 mm
12:20 AM 25.9°F-3.4°C 25.1°F-3.8°C 97% Calm Calm -- 29.94 in1013.9 mb - 0.00 in0.0 mm 0.00 in0.0 mm
12:15 AM 25.2°F-3.8°C 24.5°F-4.2°C 97% Calm Calm -- 29.94 in1013.9 mb - 0.00 in0.0 mm 0.00 in0.0 mm
12:10 AM 25.4°F-3.7°C 24.7°F-4.1°C 97% Calm Calm -- 29.94 in1013.9 mb - 0.00 in0.0 mm 0.00 in0.0 mm
12:00 AM 26.6°F-3.0°C 25.9°F-3.4°C 97% Calm Calm -- 29.94 in1013.9 mb - 0.00 in0.0 mm 0.00 in0.0 mm